sensor_id;sensor_type;location;lat;lon;timestamp;pressure;altitude;pressure_sealevel;temperature;humidity
55757;BME280;41676;44.610;44.078;2024-03-29T00:03:12;100632.91;;;3.62;84.77
55757;BME280;41676;44.610;44.078;2024-03-29T00:08:12;100641.50;;;3.64;84.88
55757;BME280;41676;44.610;44.078;2024-03-29T00:13:13;100590.69;;;3.30;84.85
55757;BME280;41676;44.610;44.078;2024-03-29T00:18:14;100647.47;;;3.55;85.60
55757;BME280;41676;44.610;44.078;2024-03-29T00:23:15;100639.53;;;3.43;85.80
55757;BME280;41676;44.610;44.078;2024-03-29T00:28:16;100638.47;;;3.46;85.21
55757;BME280;41676;44.610;44.078;2024-03-29T00:33:16;100634.28;;;3.43;85.15
55757;BME280;41676;44.610;44.078;2024-03-29T00:38:17;100629.91;;;3.55;85.28
55757;BME280;41676;44.610;44.078;2024-03-29T00:43:18;100626.59;;;3.64;85.19
55757;BME280;41676;44.610;44.078;2024-03-29T00:48:19;100616.06;;;3.53;85.61
55757;BME280;41676;44.610;44.078;2024-03-29T00:53:20;100578.00;;;3.12;85.54
55757;BME280;41676;44.610;44.078;2024-03-29T00:58:21;100636.13;;;3.19;85.80
55757;BME280;41676;44.610;44.078;2024-03-29T01:03:22;100627.13;;;3.10;87.06
55757;BME280;41676;44.610;44.078;2024-03-29T01:08:23;100621.78;;;2.88;87.24
55757;BME280;41676;44.610;44.078;2024-03-29T01:13:23;100628.63;;;2.90;87.50
55757;BME280;41676;44.610;44.078;2024-03-29T01:18:24;100613.94;;;2.88;87.81
55757;BME280;41676;44.610;44.078;2024-03-29T01:23:25;100611.06;;;2.91;88.18
55757;BME280;41676;44.610;44.078;2024-03-29T01:28:26;100614.19;;;2.96;88.79
55757;BME280;41676;44.610;44.078;2024-03-29T01:33:26;100591.69;;;2.81;88.85
55757;BME280;41676;44.610;44.078;2024-03-29T01:38:28;100604.81;;;2.81;89.06
55757;BME280;41676;44.610;44.078;2024-03-29T01:43:29;100605.22;;;2.87;89.77
55757;BME280;41676;44.610;44.078;2024-03-29T01:48:30;100590.47;;;2.73;90.00
55757;BME280;41676;44.610;44.078;2024-03-29T01:53:31;100589.03;;;2.69;90.04
55757;BME280;41676;44.610;44.078;2024-03-29T01:58:32;100528.03;;;2.31;89.71
55757;BME280;41676;44.610;44.078;2024-03-29T02:03:33;100581.06;;;2.34;89.80
55757;BME280;41676;44.610;44.078;2024-03-29T02:08:34;100589.72;;;2.11;90.71
55757;BME280;41676;44.610;44.078;2024-03-29T02:13:35;100572.53;;;1.94;92.02
55757;BME280;41676;44.610;44.078;2024-03-29T02:18:36;100553.28;;;1.82;92.88
55757;BME280;41676;44.610;44.078;2024-03-29T02:23:41;100591.00;;;1.92;94.52
55757;BME280;41676;44.610;44.078;2024-03-29T02:28:43;100596.03;;;1.95;94.10
55757;BME280;41676;44.610;44.078;2024-03-29T02:33:44;100568.59;;;1.75;94.31
55757;BME280;41676;44.610;44.078;2024-03-29T02:38:45;100597.41;;;2.01;93.97
55757;BME280;41676;44.610;44.078;2024-03-29T02:43:45;100637.94;;;2.08;94.38
55757;BME280;41676;44.610;44.078;2024-03-29T02:48:46;100653.47;;;1.98;94.35
55757;BME280;41676;44.610;44.078;2024-03-29T02:53:47;100672.34;;;2.03;94.04
55757;BME280;41676;44.610;44.078;2024-03-29T02:58:48;100651.16;;;2.07;94.71
55757;BME280;41676;44.610;44.078;2024-03-29T03:03:48;100650.59;;;2.27;96.17
55757;BME280;41676;44.610;44.078;2024-03-29T03:08:49;100667.75;;;2.57;95.04
55757;BME280;41676;44.610;44.078;2024-03-29T03:14:08;100653.06;;;2.91;93.64
55757;BME280;41676;44.610;44.078;2024-03-29T03:19:09;100681.50;;;3.56;91.98
55757;BME280;41676;44.610;44.078;2024-03-29T03:24:10;100673.34;;;3.95;89.63
55757;BME280;41676;44.610;44.078;2024-03-29T03:29:12;100676.00;;;4.17;88.25
55757;BME280;41676;44.610;44.078;2024-03-29T03:34:13;100676.38;;;4.35;87.09
55757;BME280;41676;44.610;44.078;2024-03-29T03:39:13;100669.91;;;4.50;86.05
55757;BME280;41676;44.610;44.078;2024-03-29T03:44:15;100640.13;;;4.50;85.19
55757;BME280;41676;44.610;44.078;2024-03-29T03:49:15;100655.81;;;5.06;84.60
55757;BME280;41676;44.610;44.078;2024-03-29T03:54:16;100654.91;;;5.70;83.89
55757;BME280;41676;44.610;44.078;2024-03-29T03:59:17;100662.69;;;6.44;82.03
55757;BME280;41676;44.610;44.078;2024-03-29T04:04:18;100662.13;;;7.20;80.94
55757;BME280;41676;44.610;44.078;2024-03-29T04:09:19;100653.13;;;7.98;79.22
55757;BME280;41676;44.610;44.078;2024-03-29T04:14:19;100627.91;;;8.04;77.30
55757;BME280;41676;44.610;44.078;2024-03-29T04:19:20;100689.13;;;8.38;76.99
55757;BME280;41676;44.610;44.078;2024-03-29T04:24:21;100639.31;;;8.14;76.85
55757;BME280;41676;44.610;44.078;2024-03-29T04:29:21;100654.47;;;8.59;75.96
55757;BME280;41676;44.610;44.078;2024-03-29T04:34:22;100675.88;;;9.11;74.84
55757;BME280;41676;44.610;44.078;2024-03-29T04:39:24;100682.38;;;9.71;72.56
55757;BME280;41676;44.610;44.078;2024-03-29T04:44:25;100669.91;;;9.89;70.92
55757;BME280;41676;44.610;44.078;2024-03-29T04:49:26;100675.69;;;9.85;69.60
55757;BME280;41676;44.610;44.078;2024-03-29T04:54:39;100663.09;;;9.87;68.56
55757;BME280;41676;44.610;44.078;2024-03-29T04:59:40;100617.66;;;9.90;67.30
55757;BME280;41676;44.610;44.078;2024-03-29T05:04:41;100665.06;;;10.37;66.26
55757;BME280;41676;44.610;44.078;2024-03-29T05:09:41;100638.88;;;10.42;64.97
55757;BME280;41676;44.610;44.078;2024-03-29T05:14:42;100667.06;;;10.77;64.29
55757;BME280;41676;44.610;44.078;2024-03-29T05:19:43;100652.53;;;11.14;63.73
55757;BME280;41676;44.610;44.078;2024-03-29T05:24:44;100686.81;;;11.66;62.93
55757;BME280;41676;44.610;44.078;2024-03-29T05:29:45;100658.72;;;11.88;62.19
55757;BME280;41676;44.610;44.078;2024-03-29T05:34:45;100670.75;;;12.40;62.36
55757;BME280;41676;44.610;44.078;2024-03-29T05:39:47;100669.47;;;12.98;61.03
55757;BME280;41676;44.610;44.078;2024-03-29T05:44:47;100646.63;;;13.50;60.38
55757;BME280;41676;44.610;44.078;2024-03-29T05:49:49;100663.59;;;13.95;59.02
55757;BME280;41676;44.610;44.078;2024-03-29T05:54:50;100651.53;;;14.13;58.36
55757;BME280;41676;44.610;44.078;2024-03-29T05:59:51;100658.78;;;14.49;57.98
55757;BME280;41676;44.610;44.078;2024-03-29T06:04:52;100621.19;;;14.66;57.45
55757;BME280;41676;44.610;44.078;2024-03-29T06:09:53;100625.81;;;14.42;56.89
55757;BME280;41676;44.610;44.078;2024-03-29T06:14:54;100647.94;;;14.36;57.52
55757;BME280;41676;44.610;44.078;2024-03-29T06:20:13;100622.78;;;14.30;57.20
55757;BME280;41676;44.610;44.078;2024-03-29T06:25:14;100640.28;;;14.63;56.86
55757;BME280;41676;44.610;44.078;2024-03-29T06:30:15;100646.13;;;14.88;56.25
55757;BME280;41676;44.610;44.078;2024-03-29T06:35:17;100645.66;;;15.20;56.22
55757;BME280;41676;44.610;44.078;2024-03-29T06:40:20;100588.34;;;15.36;55.08
55757;BME280;41676;44.610;44.078;2024-03-29T06:45:21;100615.81;;;15.94;54.51
55757;BME280;41676;44.610;44.078;2024-03-29T06:50:22;100592.53;;;16.02;54.14
55757;BME280;41676;44.610;44.078;2024-03-29T06:55:23;100616.66;;;16.36;53.55
55757;BME280;41676;44.610;44.078;2024-03-29T07:00:23;100572.66;;;16.24;53.20
55757;BME280;41676;44.610;44.078;2024-03-29T07:05:24;100601.91;;;16.67;52.96
55757;BME280;41676;44.610;44.078;2024-03-29T07:10:25;100578.06;;;16.92;52.79
55757;BME280;41676;44.610;44.078;2024-03-29T07:15:26;100593.34;;;16.98;51.19
55757;BME280;41676;44.610;44.078;2024-03-29T07:20:27;100625.63;;;17.45;51.10
55757;BME280;41676;44.610;44.078;2024-03-29T07:25:27;100558.47;;;17.31;50.26
55757;BME280;41676;44.610;44.078;2024-03-29T07:30:28;100566.53;;;17.45;49.65
55757;BME280;41676;44.610;44.078;2024-03-29T07:35:29;100602.66;;;17.75;48.81
55757;BME280;41676;44.610;44.078;2024-03-29T07:40:30;100596.06;;;17.78;48.29
55757;BME280;41676;44.610;44.078;2024-03-29T07:45:31;100587.97;;;17.91;47.84
55757;BME280;41676;44.610;44.078;2024-03-29T07:50:32;100580.66;;;18.18;47.31
55757;BME280;41676;44.610;44.078;2024-03-29T07:55:35;100540.38;;;18.05;46.74
55757;BME280;41676;44.610;44.078;2024-03-29T08:00:39;100581.25;;;18.27;46.58
55757;BME280;41676;44.610;44.078;2024-03-29T08:05:41;100580.56;;;18.45;46.09
55757;BME280;41676;44.610;44.078;2024-03-29T08:10:42;100588.47;;;18.40;45.65
55757;BME280;41676;44.610;44.078;2024-03-29T08:15:43;100494.72;;;17.92;45.63
55757;BME280;41676;44.610;44.078;2024-03-29T08:20:43;100586.84;;;18.77;45.30
55757;BME280;41676;44.610;44.078;2024-03-29T08:25:44;100543.41;;;18.74;44.64
55757;BME280;41676;44.610;44.078;2024-03-29T08:30:45;100581.47;;;19.09;44.32
55757;BME280;41676;44.610;44.078;2024-03-29T08:35:46;100533.03;;;19.02;43.94
55757;BME280;41676;44.610;44.078;2024-03-29T08:40:46;100526.00;;;19.01;43.41
55757;BME280;41676;44.610;44.078;2024-03-29T08:45:48;100565.97;;;19.29;43.33
55757;BME280;41676;44.610;44.078;2024-03-29T08:50:49;100562.13;;;19.69;42.57
55757;BME280;41676;44.610;44.078;2024-03-29T08:55:50;100529.81;;;19.62;42.54
55757;BME280;41676;44.610;44.078;2024-03-29T09:00:54;100473.63;;;19.22;41.34
55757;BME280;41676;44.610;44.078;2024-03-29T09:05:58;100549.25;;;19.71;41.95
55757;BME280;41676;44.610;44.078;2024-03-29T09:10:59;100536.47;;;20.03;41.44
55757;BME280;41676;44.610;44.078;2024-03-29T09:16:01;100529.91;;;20.29;41.42
55757;BME280;41676;44.610;44.078;2024-03-29T09:21:02;100481.66;;;19.72;40.92
55757;BME280;41676;44.610;44.078;2024-03-29T09:26:06;100511.22;;;19.79;40.69
55757;BME280;41676;44.610;44.078;2024-03-29T09:31:07;100510.56;;;19.83;41.06
55757;BME280;41676;44.610;44.078;2024-03-29T09:36:08;100491.84;;;20.19;40.59
55757;BME280;41676;44.610;44.078;2024-03-29T09:41:14;100485.81;;;20.54;40.14
55757;BME280;41676;44.610;44.078;2024-03-29T09:46:16;100493.22;;;20.58;39.57
55757;BME280;41676;44.610;44.078;2024-03-29T09:51:17;100470.25;;;20.49;38.84
55757;BME280;41676;44.610;44.078;2024-03-29T09:56:20;100459.88;;;20.52;38.73
55757;BME280;41676;44.610;44.078;2024-03-29T10:01:22;100442.47;;;20.18;38.73
55757;BME280;41676;44.610;44.078;2024-03-29T10:06:24;100481.41;;;19.92;38.83
55757;BME280;41676;44.610;44.078;2024-03-29T10:11:25;100439.50;;;19.59;38.96
55757;BME280;41676;44.610;44.078;2024-03-29T10:16:30;100464.56;;;20.27;38.20
55757;BME280;41676;44.610;44.078;2024-03-29T10:21:31;100445.44;;;20.17;38.31
55757;BME280;41676;44.610;44.078;2024-03-29T10:26:32;100460.41;;;20.13;38.27
55757;BME280;41676;44.610;44.078;2024-03-29T10:31:36;100454.03;;;20.25;37.32
55757;BME280;41676;44.610;44.078;2024-03-29T10:36:37;100435.25;;;20.61;37.71
55757;BME280;41676;44.610;44.078;2024-03-29T10:41:44;100395.16;;;20.46;36.01
55757;BME280;41676;44.610;44.078;2024-03-29T10:46:47;100385.41;;;20.33;36.87
55757;BME280;41676;44.610;44.078;2024-03-29T10:51:50;100440.69;;;21.08;35.67
55757;BME280;41676;44.610;44.078;2024-03-29T10:56:59;100444.28;;;20.66;36.27
55757;BME280;41676;44.610;44.078;2024-03-29T11:02:00;100439.34;;;20.63;37.17
55757;BME280;41676;44.610;44.078;2024-03-29T11:07:12;100419.41;;;20.52;37.35
55757;BME280;41676;44.610;44.078;2024-03-29T11:12:17;100366.41;;;20.28;37.11
55757;BME280;41676;44.610;44.078;2024-03-29T11:17:19;100397.47;;;20.30;37.11
55757;BME280;41676;44.610;44.078;2024-03-29T11:22:20;100398.06;;;20.21;37.24
55757;BME280;41676;44.610;44.078;2024-03-29T11:27:23;100385.81;;;20.06;36.97
55757;BME280;41676;44.610;44.078;2024-03-29T11:32:37;100331.81;;;19.83;36.57
55757;BME280;41676;44.610;44.078;2024-03-29T11:37:39;100384.09;;;20.24;37.66
55757;BME280;41676;44.610;44.078;2024-03-29T11:42:52;100369.94;;;20.28;35.82
55757;BME280;41676;44.610;44.078;2024-03-29T11:47:54;100354.31;;;20.30;36.56
55757;BME280;41676;44.610;44.078;2024-03-29T11:52:56;100367.19;;;20.59;37.35
55757;BME280;41676;44.610;44.078;2024-03-29T11:57:56;100358.44;;;20.33;36.97
55757;BME280;41676;44.610;44.078;2024-03-29T12:02:57;100365.19;;;20.12;36.39
55757;BME280;41676;44.610;44.078;2024-03-29T12:07:58;100369.22;;;19.91;36.47
55757;BME280;41676;44.610;44.078;2024-03-29T12:13:00;100387.94;;;20.04;37.23
55757;BME280;41676;44.610;44.078;2024-03-29T12:18:02;100400.09;;;19.95;36.81
55757;BME280;41676;44.610;44.078;2024-03-29T12:23:07;100391.81;;;19.78;37.12
55757;BME280;41676;44.610;44.078;2024-03-29T12:28:10;100330.53;;;19.37;36.99
55757;BME280;41676;44.610;44.078;2024-03-29T12:33:13;100364.09;;;19.53;37.41
55757;BME280;41676;44.610;44.078;2024-03-29T12:38:16;100375.78;;;19.47;37.46
55757;BME280;41676;44.610;44.078;2024-03-29T12:43:22;100370.56;;;19.33;37.52
55757;BME280;41676;44.610;44.078;2024-03-29T12:48:23;100363.59;;;19.26;37.90
55757;BME280;41676;44.610;44.078;2024-03-29T12:53:25;100351.75;;;19.08;38.36
55757;BME280;41676;44.610;44.078;2024-03-29T12:58:28;100368.25;;;19.19;38.53
55757;BME280;41676;44.610;44.078;2024-03-29T13:03:29;100354.63;;;19.13;38.70
55757;BME280;41676;44.610;44.078;2024-03-29T13:08:30;100357.00;;;19.03;38.43
55757;BME280;41676;44.610;44.078;2024-03-29T13:13:30;100374.63;;;18.99;38.35
55757;BME280;41676;44.610;44.078;2024-03-29T13:18:31;100318.66;;;18.64;38.82
55757;BME280;41676;44.610;44.078;2024-03-29T13:23:32;100343.38;;;18.80;39.24
55757;BME280;41676;44.610;44.078;2024-03-29T13:28:33;100344.50;;;18.65;39.50
55757;BME280;41676;44.610;44.078;2024-03-29T13:33:34;100348.47;;;18.63;39.62
55757;BME280;41676;44.610;44.078;2024-03-29T13:38:34;100357.03;;;18.53;39.90
55757;BME280;41676;44.610;44.078;2024-03-29T13:43:35;100340.22;;;18.33;40.27
55757;BME280;41676;44.610;44.078;2024-03-29T13:48:39;100352.03;;;18.32;40.96
55757;BME280;41676;44.610;44.078;2024-03-29T13:53:42;100301.28;;;17.85;41.28
55757;BME280;41676;44.610;44.078;2024-03-29T13:58:43;100217.47;;;17.31;41.65
55757;BME280;41676;44.610;44.078;2024-03-29T14:03:43;100245.19;;;17.32;41.77
55757;BME280;41676;44.610;44.078;2024-03-29T14:08:44;100343.66;;;17.76;41.65
55757;BME280;41676;44.610;44.078;2024-03-29T14:13:45;100340.84;;;17.65;42.34
55757;BME280;41676;44.610;44.078;2024-03-29T14:18:49;100321.13;;;17.39;42.74
55757;BME280;41676;44.610;44.078;2024-03-29T14:23:50;100340.97;;;17.31;42.81
55757;BME280;41676;44.610;44.078;2024-03-29T14:28:51;100352.19;;;17.22;43.25
55757;BME280;41676;44.610;44.078;2024-03-29T14:33:51;100352.00;;;17.10;43.51
55757;BME280;41676;44.610;44.078;2024-03-29T14:38:52;100364.00;;;17.01;44.08
55757;BME280;41676;44.610;44.078;2024-03-29T14:43:55;100360.09;;;16.83;43.94
55757;BME280;41676;44.610;44.078;2024-03-29T14:48:57;100322.97;;;16.47;44.29
55757;BME280;41676;44.610;44.078;2024-03-29T14:53:58;100359.69;;;16.53;44.97
55757;BME280;41676;44.610;44.078;2024-03-29T14:59:06;100316.38;;;16.10;45.67
55757;BME280;41676;44.610;44.078;2024-03-29T15:04:10;100377.19;;;16.29;45.39
55757;BME280;41676;44.610;44.078;2024-03-29T15:09:11;100363.97;;;16.08;45.99
55757;BME280;41676;44.610;44.078;2024-03-29T15:14:12;100378.59;;;15.92;45.87
55757;BME280;41676;44.610;44.078;2024-03-29T15:19:13;100373.78;;;15.74;46.28
55757;BME280;41676;44.610;44.078;2024-03-29T15:24:13;100322.91;;;15.26;46.13
55757;BME280;41676;44.610;44.078;2024-03-29T15:29:14;100322.22;;;15.11;46.36
55757;BME280;41676;44.610;44.078;2024-03-29T15:34:16;100367.78;;;15.24;46.08
55757;BME280;41676;44.610;44.078;2024-03-29T15:39:17;100348.25;;;14.95;46.73
55757;BME280;41676;44.610;44.078;2024-03-29T15:44:20;100366.94;;;14.89;46.91
55757;BME280;41676;44.610;44.078;2024-03-29T15:49:22;100317.84;;;14.47;46.93
55757;BME280;41676;44.610;44.078;2024-03-29T15:54:22;100389.94;;;14.83;47.12
55757;BME280;41676;44.610;44.078;2024-03-29T15:59:23;100338.56;;;14.38;47.15
55757;BME280;41676;44.610;44.078;2024-03-29T16:04:24;100381.53;;;14.58;47.51
55757;BME280;41676;44.610;44.078;2024-03-29T16:09:25;100386.81;;;14.51;47.86
55757;BME280;41676;44.610;44.078;2024-03-29T16:14:26;100406.50;;;14.50;48.31
55757;BME280;41676;44.610;44.078;2024-03-29T16:19:29;100405.50;;;14.30;48.92
55757;BME280;41676;44.610;44.078;2024-03-29T16:24:30;100395.50;;;14.17;49.51
55757;BME280;41676;44.610;44.078;2024-03-29T16:29:30;100381.03;;;13.90;50.33
55757;BME280;41676;44.610;44.078;2024-03-29T16:34:31;100417.19;;;14.07;50.63
55757;BME280;41676;44.610;44.078;2024-03-29T16:39:32;100421.00;;;13.98;51.25
55757;BME280;41676;44.610;44.078;2024-03-29T16:44:33;100416.56;;;13.90;51.81
55757;BME280;41676;44.610;44.078;2024-03-29T16:49:33;100414.94;;;13.89;52.32
55757;BME280;41676;44.610;44.078;2024-03-29T16:54:34;100418.63;;;13.88;52.56
55757;BME280;41676;44.610;44.078;2024-03-29T16:59:35;100375.16;;;13.58;52.61
55757;BME280;41676;44.610;44.078;2024-03-29T17:04:37;100417.25;;;13.78;53.19
55757;BME280;41676;44.610;44.078;2024-03-29T17:09:42;100414.25;;;13.66;53.99
55757;BME280;41676;44.610;44.078;2024-03-29T17:14:43;100409.00;;;13.58;54.55
55757;BME280;41676;44.610;44.078;2024-03-29T17:19:44;100359.16;;;13.14;54.88
55757;BME280;41676;44.610;44.078;2024-03-29T17:24:45;100408.09;;;13.36;55.95
55757;BME280;41676;44.610;44.078;2024-03-29T17:29:45;100401.66;;;13.30;56.03
55757;BME280;41676;44.610;44.078;2024-03-29T17:34:46;100390.88;;;13.23;56.42
55757;BME280;41676;44.610;44.078;2024-03-29T17:39:47;100315.63;;;12.69;56.75
55757;BME280;41676;44.610;44.078;2024-03-29T17:44:48;100404.94;;;13.17;56.99
55757;BME280;41676;44.610;44.078;2024-03-29T17:49:48;100357.09;;;12.86;57.45
55757;BME280;41676;44.610;44.078;2024-03-29T17:54:49;100382.03;;;12.93;58.52
55757;BME280;41676;44.610;44.078;2024-03-29T17:59:50;100383.75;;;12.86;58.90
55757;BME280;41676;44.610;44.078;2024-03-29T18:04:51;100385.22;;;12.89;59.74
55757;BME280;41676;44.610;44.078;2024-03-29T18:09:51;100388.81;;;12.81;60.01
55757;BME280;41676;44.610;44.078;2024-03-29T18:14:52;100381.25;;;12.70;60.30
55757;BME280;41676;44.610;44.078;2024-03-29T18:19:54;100387.41;;;12.70;60.62
55757;BME280;41676;44.610;44.078;2024-03-29T18:24:55;100395.75;;;12.67;61.10
55757;BME280;41676;44.610;44.078;2024-03-29T18:29:55;100349.09;;;12.33;61.21
55757;BME280;41676;44.610;44.078;2024-03-29T18:34:56;100313.00;;;12.08;61.84
55757;BME280;41676;44.610;44.078;2024-03-29T18:39:57;100374.75;;;12.49;62.52
55757;BME280;41676;44.610;44.078;2024-03-29T18:44:58;100367.03;;;12.40;63.23
55757;BME280;41676;44.610;44.078;2024-03-29T18:50:00;100373.66;;;12.44;63.52
55757;BME280;41676;44.610;44.078;2024-03-29T18:55:01;100376.03;;;12.39;63.96
55757;BME280;41676;44.610;44.078;2024-03-29T19:00:06;100349.81;;;12.27;65.15
55757;BME280;41676;44.610;44.078;2024-03-29T19:05:08;100314.28;;;11.97;64.76
55757;BME280;41676;44.610;44.078;2024-03-29T19:10:09;100346.50;;;12.25;65.08
55757;BME280;41676;44.610;44.078;2024-03-29T19:15:10;100354.69;;;12.24;64.67
55757;BME280;41676;44.610;44.078;2024-03-29T19:20:11;100352.19;;;12.22;64.45
55757;BME280;41676;44.610;44.078;2024-03-29T19:25:12;100316.69;;;12.07;65.25
55757;BME280;41676;44.610;44.078;2024-03-29T19:30:12;100283.03;;;11.91;65.99
55757;BME280;41676;44.610;44.078;2024-03-29T19:35:13;100287.38;;;11.84;66.93
55757;BME280;41676;44.610;44.078;2024-03-29T19:40:14;100310.38;;;11.85;66.86
55757;BME280;41676;44.610;44.078;2024-03-29T19:45:15;100349.22;;;11.94;66.54
55757;BME280;41676;44.610;44.078;2024-03-29T19:50:16;100313.31;;;11.59;66.15
55757;BME280;41676;44.610;44.078;2024-03-29T19:55:18;100362.22;;;11.89;66.63
55757;BME280;41676;44.610;44.078;2024-03-29T20:00:19;100388.38;;;11.85;67.16
55757;BME280;41676;44.610;44.078;2024-03-29T20:05:20;100393.34;;;11.80;66.91
55757;BME280;41676;44.610;44.078;2024-03-29T20:10:21;100408.19;;;11.75;67.61
55757;BME280;41676;44.610;44.078;2024-03-29T20:15:22;100398.56;;;11.74;67.17
55757;BME280;41676;44.610;44.078;2024-03-29T20:20:23;100382.94;;;11.71;67.33
55757;BME280;41676;44.610;44.078;2024-03-29T20:25:24;100338.88;;;11.37;67.35
55757;BME280;41676;44.610;44.078;2024-03-29T20:30:25;100396.72;;;11.74;67.54
55757;BME280;41676;44.610;44.078;2024-03-29T20:35:26;100385.75;;;11.69;67.56
55757;BME280;41676;44.610;44.078;2024-03-29T20:40:27;100331.25;;;11.34;67.14
55757;BME280;41676;44.610;44.078;2024-03-29T20:45:27;100391.75;;;11.71;67.23
55757;BME280;41676;44.610;44.078;2024-03-29T20:50:28;100390.88;;;11.79;67.46
55757;BME280;41676;44.610;44.078;2024-03-29T20:55:29;100398.56;;;11.74;67.60
55757;BME280;41676;44.610;44.078;2024-03-29T21:00:30;100399.56;;;11.73;67.81
55757;BME280;41676;44.610;44.078;2024-03-29T21:05:31;100409.72;;;11.69;68.20
55757;BME280;41676;44.610;44.078;2024-03-29T21:10:45;100392.19;;;11.52;68.18
55757;BME280;41676;44.610;44.078;2024-03-29T21:15:46;100379.53;;;11.46;68.68
55757;BME280;41676;44.610;44.078;2024-03-29T21:20:47;100404.13;;;11.56;68.31
55757;BME280;41676;44.610;44.078;2024-03-29T21:25:49;100407.13;;;11.53;68.34
55757;BME280;41676;44.610;44.078;2024-03-29T21:30:50;100356.88;;;11.18;68.20
55757;BME280;41676;44.610;44.078;2024-03-29T21:35:52;100425.75;;;11.53;68.52
55757;BME280;41676;44.610;44.078;2024-03-29T21:40:53;100432.44;;;11.49;68.89
55757;BME280;41676;44.610;44.078;2024-03-29T21:45:54;100437.09;;;11.47;69.17
55757;BME280;41676;44.610;44.078;2024-03-29T21:50:55;100428.97;;;11.40;69.13
55757;BME280;41676;44.610;44.078;2024-03-29T21:55:55;100436.28;;;11.30;69.14
55757;BME280;41676;44.610;44.078;2024-03-29T22:00:56;100424.22;;;11.19;69.58
55757;BME280;41676;44.610;44.078;2024-03-29T22:05:57;100418.56;;;11.06;70.28
55757;BME280;41676;44.610;44.078;2024-03-29T22:10:59;100398.50;;;10.95;70.47
55757;BME280;41676;44.610;44.078;2024-03-29T22:16:01;100347.06;;;10.55;70.96
55757;BME280;41676;44.610;44.078;2024-03-29T22:21:02;100407.97;;;10.81;71.36
55757;BME280;41676;44.610;44.078;2024-03-29T22:26:03;100393.53;;;10.84;71.81
55757;BME280;41676;44.610;44.078;2024-03-29T22:31:04;100443.69;;;10.87;71.98
55757;BME280;41676;44.610;44.078;2024-03-29T22:36:07;100434.56;;;10.89;72.66
55757;BME280;41676;44.610;44.078;2024-03-29T22:41:08;100419.44;;;10.73;73.15
55757;BME280;41676;44.610;44.078;2024-03-29T22:46:09;100445.19;;;10.89;73.79
55757;BME280;41676;44.610;44.078;2024-03-29T22:51:10;100444.84;;;10.92;75.00
55757;BME280;41676;44.610;44.078;2024-03-29T22:56:10;100436.88;;;10.84;75.30
55757;BME280;41676;44.610;44.078;2024-03-29T23:01:11;100447.00;;;10.81;75.82
55757;BME280;41676;44.610;44.078;2024-03-29T23:06:12;100443.53;;;10.80;76.21
55757;BME280;41676;44.610;44.078;2024-03-29T23:11:13;100431.06;;;10.72;76.10
55757;BME280;41676;44.610;44.078;2024-03-29T23:16:13;100431.75;;;10.74;75.91
55757;BME280;41676;44.610;44.078;2024-03-29T23:21:14;100391.75;;;10.35;79.33
55757;BME280;41676;44.610;44.078;2024-03-29T23:26:15;100341.03;;;9.79;84.54
55757;BME280;41676;44.610;44.078;2024-03-29T23:31:16;100267.44;;;9.06;90.46
55757;BME280;41676;44.610;44.078;2024-03-29T23:36:17;100280.84;;;9.13;92.10
55757;BME280;41676;44.610;44.078;2024-03-29T23:41:18;100281.50;;;9.15;92.23
55757;BME280;41676;44.610;44.078;2024-03-29T23:46:19;100251.25;;;8.83;91.64
55757;BME280;41676;44.610;44.078;2024-03-29T23:51:19;100292.97;;;9.16;91.08
55757;BME280;41676;44.610;44.078;2024-03-29T23:56:20;100301.47;;;9.35;91.34
